sensor_id;sensor_type;location;lat;lon;timestamp;temperature;humidity
69679;DHT22;56915;52.046;4.854;2023-04-06T00:00:53;2.40;87.80
69679;DHT22;56915;52.046;4.854;2023-04-06T00:03:20;2.40;87.70
69679;DHT22;56915;52.046;4.854;2023-04-06T00:05:48;2.50;87.50
69679;DHT22;56915;52.046;4.854;2023-04-06T00:08:14;2.50;87.10
69679;DHT22;56915;52.046;4.854;2023-04-06T00:10:41;2.60;86.80
69679;DHT22;56915;52.046;4.854;2023-04-06T00:13:08;2.60;86.30
69679;DHT22;56915;52.046;4.854;2023-04-06T00:15:35;2.70;85.90
69679;DHT22;56915;52.046;4.854;2023-04-06T00:18:02;2.80;85.60
69679;DHT22;56915;52.046;4.854;2023-04-06T00:20:30;2.80;85.10
69679;DHT22;56915;52.046;4.854;2023-04-06T00:22:56;2.90;85.50
69679;DHT22;56915;52.046;4.854;2023-04-06T00:25:23;2.90;85.20
69679;DHT22;56915;52.046;4.854;2023-04-06T00:27:50;3.00;84.30
69679;DHT22;56915;52.046;4.854;2023-04-06T00:30:17;3.00;84.10
69679;DHT22;56915;52.046;4.854;2023-04-06T00:32:44;3.00;83.80
69679;DHT22;56915;52.046;4.854;2023-04-06T00:35:10;3.10;83.60
69679;DHT22;56915;52.046;4.854;2023-04-06T00:37:37;3.10;83.20
69679;DHT22;56915;52.046;4.854;2023-04-06T00:40:04;3.20;83.00
69679;DHT22;56915;52.046;4.854;2023-04-06T00:42:32;3.20;82.60
69679;DHT22;56915;52.046;4.854;2023-04-06T00:45:00;3.20;82.30
69679;DHT22;56915;52.046;4.854;2023-04-06T00:47:28;3.30;82.00
69679;DHT22;56915;52.046;4.854;2023-04-06T00:49:55;3.30;81.60
69679;DHT22;56915;52.046;4.854;2023-04-06T00:52:22;3.30;81.20
69679;DHT22;56915;52.046;4.854;2023-04-06T00:54:49;3.40;80.90
69679;DHT22;56915;52.046;4.854;2023-04-06T00:57:17;3.40;80.60
69679;DHT22;56915;52.046;4.854;2023-04-06T00:59:45;3.40;80.20
69679;DHT22;56915;52.046;4.854;2023-04-06T01:02:12;3.50;79.90
69679;DHT22;56915;52.046;4.854;2023-04-06T01:04:39;3.50;79.50
69679;DHT22;56915;52.046;4.854;2023-04-06T01:07:06;3.60;79.20
69679;DHT22;56915;52.046;4.854;2023-04-06T01:09:32;3.60;79.40
69679;DHT22;56915;52.046;4.854;2023-04-06T01:11:59;3.60;78.70
69679;DHT22;56915;52.046;4.854;2023-04-06T01:14:27;3.60;78.40
69679;DHT22;56915;52.046;4.854;2023-04-06T01:16:54;3.60;78.10
69679;DHT22;56915;52.046;4.854;2023-04-06T01:19:23;3.60;78.50
69679;DHT22;56915;52.046;4.854;2023-04-06T01:21:50;3.60;78.30
69679;DHT22;56915;52.046;4.854;2023-04-06T01:24:17;3.60;77.30
69679;DHT22;56915;52.046;4.854;2023-04-06T01:26:44;3.60;77.10
69679;DHT22;56915;52.046;4.854;2023-04-06T01:29:11;3.60;76.80
69679;DHT22;56915;52.046;4.854;2023-04-06T01:31:39;3.60;76.60
69679;DHT22;56915;52.046;4.854;2023-04-06T01:34:06;3.60;76.60
69679;DHT22;56915;52.046;4.854;2023-04-06T01:36:33;3.60;76.50
69679;DHT22;56915;52.046;4.854;2023-04-06T01:38:59;3.60;76.40
69679;DHT22;56915;52.046;4.854;2023-04-06T01:41:26;3.50;76.30
69679;DHT22;56915;52.046;4.854;2023-04-06T01:43:53;3.50;76.20
69679;DHT22;56915;52.046;4.854;2023-04-06T01:46:21;3.50;76.20
69679;DHT22;56915;52.046;4.854;2023-04-06T01:48:47;3.50;76.20
69679;DHT22;56915;52.046;4.854;2023-04-06T01:51:15;3.50;76.20
69679;DHT22;56915;52.046;4.854;2023-04-06T01:53:42;3.50;76.10
69679;DHT22;56915;52.046;4.854;2023-04-06T01:56:08;3.50;76.00
69679;DHT22;56915;52.046;4.854;2023-04-06T01:58:35;3.50;75.80
69679;DHT22;56915;52.046;4.854;2023-04-06T02:01:02;3.50;75.60
69679;DHT22;56915;52.046;4.854;2023-04-06T02:03:29;3.50;75.50
69679;DHT22;56915;52.046;4.854;2023-04-06T02:05:57;3.50;75.30
69679;DHT22;56915;52.046;4.854;2023-04-06T02:08:24;3.50;75.30
69679;DHT22;56915;52.046;4.854;2023-04-06T02:10:51;3.50;75.30
69679;DHT22;56915;52.046;4.854;2023-04-06T02:13:18;3.50;75.10
69679;DHT22;56915;52.046;4.854;2023-04-06T02:15:45;3.50;75.00
69679;DHT22;56915;52.046;4.854;2023-04-06T02:18:12;3.50;74.90
69679;DHT22;56915;52.046;4.854;2023-04-06T02:20:38;3.50;74.80
69679;DHT22;56915;52.046;4.854;2023-04-06T02:23:05;3.50;74.70
69679;DHT22;56915;52.046;4.854;2023-04-06T02:25:32;3.50;74.60
69679;DHT22;56915;52.046;4.854;2023-04-06T02:27:59;3.60;74.40
69679;DHT22;56915;52.046;4.854;2023-04-06T02:30:26;3.60;74.20
69679;DHT22;56915;52.046;4.854;2023-04-06T02:32:52;3.60;74.10
69679;DHT22;56915;52.046;4.854;2023-04-06T02:35:19;3.60;73.90
69679;DHT22;56915;52.046;4.854;2023-04-06T02:37:46;3.60;73.60
69679;DHT22;56915;52.046;4.854;2023-04-06T02:40:14;3.60;74.40
69679;DHT22;56915;52.046;4.854;2023-04-06T02:42:40;3.60;73.60
69679;DHT22;56915;52.046;4.854;2023-04-06T02:45:07;3.60;73.70
69679;DHT22;56915;52.046;4.854;2023-04-06T02:47:34;3.60;73.70
69679;DHT22;56915;52.046;4.854;2023-04-06T02:50:01;3.70;74.40
69679;DHT22;56915;52.046;4.854;2023-04-06T02:52:28;3.70;73.70
69679;DHT22;56915;52.046;4.854;2023-04-06T02:54:55;3.70;73.70
69679;DHT22;56915;52.046;4.854;2023-04-06T02:57:22;3.70;74.20
69679;DHT22;56915;52.046;4.854;2023-04-06T02:59:48;3.80;73.20
69679;DHT22;56915;52.046;4.854;2023-04-06T03:02:15;3.80;73.00
69679;DHT22;56915;52.046;4.854;2023-04-06T03:04:42;3.90;72.80
69679;DHT22;56915;52.046;4.854;2023-04-06T03:07:09;3.90;73.20
69679;DHT22;56915;52.046;4.854;2023-04-06T03:09:39;4.00;72.80
69679;DHT22;56915;52.046;4.854;2023-04-06T03:12:06;4.00;71.70
69679;DHT22;56915;52.046;4.854;2023-04-06T03:14:35;4.10;71.40
69679;DHT22;56915;52.046;4.854;2023-04-06T03:17:02;4.10;71.10
69679;DHT22;56915;52.046;4.854;2023-04-06T03:19:29;4.20;71.10
69679;DHT22;56915;52.046;4.854;2023-04-06T03:21:55;4.20;70.90
69679;DHT22;56915;52.046;4.854;2023-04-06T03:24:22;4.20;71.00
69679;DHT22;56915;52.046;4.854;2023-04-06T03:26:49;4.20;71.00
69679;DHT22;56915;52.046;4.854;2023-04-06T03:29:16;4.30;71.00
69679;DHT22;56915;52.046;4.854;2023-04-06T03:31:43;4.30;71.10
69679;DHT22;56915;52.046;4.854;2023-04-06T03:34:10;4.30;71.10
69679;DHT22;56915;52.046;4.854;2023-04-06T03:36:36;4.30;71.00
69679;DHT22;56915;52.046;4.854;2023-04-06T03:39:04;4.40;70.90
69679;DHT22;56915;52.046;4.854;2023-04-06T03:41:31;4.40;70.90
69679;DHT22;56915;52.046;4.854;2023-04-06T03:43:58;4.40;70.90
69679;DHT22;56915;52.046;4.854;2023-04-06T03:46:24;4.40;70.80
69679;DHT22;56915;52.046;4.854;2023-04-06T03:48:51;4.50;70.70
69679;DHT22;56915;52.046;4.854;2023-04-06T03:51:18;4.50;70.70
69679;DHT22;56915;52.046;4.854;2023-04-06T03:53:45;4.50;70.70
69679;DHT22;56915;52.046;4.854;2023-04-06T03:56:12;4.50;70.70
69679;DHT22;56915;52.046;4.854;2023-04-06T03:58:39;4.50;70.70
69679;DHT22;56915;52.046;4.854;2023-04-06T04:01:05;4.50;70.90
69679;DHT22;56915;52.046;4.854;2023-04-06T04:03:32;4.50;71.00
69679;DHT22;56915;52.046;4.854;2023-04-06T04:05:59;4.50;71.00
69679;DHT22;56915;52.046;4.854;2023-04-06T04:08:26;4.50;71.00
69679;DHT22;56915;52.046;4.854;2023-04-06T04:10:53;4.60;71.10
69679;DHT22;56915;52.046;4.854;2023-04-06T04:13:19;4.50;71.10
69679;DHT22;56915;52.046;4.854;2023-04-06T04:15:46;4.60;71.10
69679;DHT22;56915;52.046;4.854;2023-04-06T04:18:14;4.60;71.00
69679;DHT22;56915;52.046;4.854;2023-04-06T04:20:41;4.60;71.00
69679;DHT22;56915;52.046;4.854;2023-04-06T04:23:08;4.60;71.00
69679;DHT22;56915;52.046;4.854;2023-04-06T04:25:34;4.60;70.70
69679;DHT22;56915;52.046;4.854;2023-04-06T04:28:02;4.70;70.30
69679;DHT22;56915;52.046;4.854;2023-04-06T04:30:29;4.80;69.70
69679;DHT22;56915;52.046;4.854;2023-04-06T04:32:55;4.80;69.30
69679;DHT22;56915;52.046;4.854;2023-04-06T04:35:22;4.90;68.90
69679;DHT22;56915;52.046;4.854;2023-04-06T04:37:49;4.90;68.50
69679;DHT22;56915;52.046;4.854;2023-04-06T04:42:41;5.00;67.50
69679;DHT22;56915;52.046;4.854;2023-04-06T04:45:08;5.00;67.20
69679;DHT22;56915;52.046;4.854;2023-04-06T04:47:35;5.00;66.80
69679;DHT22;56915;52.046;4.854;2023-04-06T04:50:03;5.10;66.70
69679;DHT22;56915;52.046;4.854;2023-04-06T04:52:29;5.10;66.60
69679;DHT22;56915;52.046;4.854;2023-04-06T04:55:04;5.10;67.20
69679;DHT22;56915;52.046;4.854;2023-04-06T04:57:32;5.10;66.40
69679;DHT22;56915;52.046;4.854;2023-04-06T05:00:02;5.10;66.30
69679;DHT22;56915;52.046;4.854;2023-04-06T05:02:29;5.10;66.30
69679;DHT22;56915;52.046;4.854;2023-04-06T05:04:56;5.10;66.40
69679;DHT22;56915;52.046;4.854;2023-04-06T05:07:23;5.10;66.30
69679;DHT22;56915;52.046;4.854;2023-04-06T05:09:50;5.10;66.30
69679;DHT22;56915;52.046;4.854;2023-04-06T05:12:17;5.10;66.80
69679;DHT22;56915;52.046;4.854;2023-04-06T05:14:44;5.10;66.10
69679;DHT22;56915;52.046;4.854;2023-04-06T05:17:14;5.10;66.10
69679;DHT22;56915;52.046;4.854;2023-04-06T05:19:41;5.10;66.10
69679;DHT22;56915;52.046;4.854;2023-04-06T05:22:07;5.10;66.10
69679;DHT22;56915;52.046;4.854;2023-04-06T05:24:34;5.20;66.10
69679;DHT22;56915;52.046;4.854;2023-04-06T05:27:02;5.20;66.80
69679;DHT22;56915;52.046;4.854;2023-04-06T05:29:29;5.20;66.20
69679;DHT22;56915;52.046;4.854;2023-04-06T05:31:56;5.30;67.10
69679;DHT22;56915;52.046;4.854;2023-04-06T05:34:23;5.30;66.50
69679;DHT22;56915;52.046;4.854;2023-04-06T05:36:49;5.40;66.60
69679;DHT22;56915;52.046;4.854;2023-04-06T05:39:16;5.40;66.50
69679;DHT22;56915;52.046;4.854;2023-04-06T05:41:43;5.50;66.60
69679;DHT22;56915;52.046;4.854;2023-04-06T05:44:10;5.50;66.60
69679;DHT22;56915;52.046;4.854;2023-04-06T05:46:37;5.60;66.80
69679;DHT22;56915;52.046;4.854;2023-04-06T05:49:04;5.70;66.90
69679;DHT22;56915;52.046;4.854;2023-04-06T05:51:32;5.70;66.90
69679;DHT22;56915;52.046;4.854;2023-04-06T05:53:59;5.80;67.00
69679;DHT22;56915;52.046;4.854;2023-04-06T05:56:26;5.90;66.90
69679;DHT22;56915;52.046;4.854;2023-04-06T05:58:53;6.00;66.70
69679;DHT22;56915;52.046;4.854;2023-04-06T06:01:20;6.10;66.50
69679;DHT22;56915;52.046;4.854;2023-04-06T06:03:47;6.10;66.10
69679;DHT22;56915;52.046;4.854;2023-04-06T06:06:13;6.20;65.90
69679;DHT22;56915;52.046;4.854;2023-04-06T06:08:40;6.20;65.70
69679;DHT22;56915;52.046;4.854;2023-04-06T06:11:07;6.30;65.60
69679;DHT22;56915;52.046;4.854;2023-04-06T06:13:34;6.40;66.10
69679;DHT22;56915;52.046;4.854;2023-04-06T06:16:01;6.50;65.30
69679;DHT22;56915;52.046;4.854;2023-04-06T06:18:31;6.50;65.10
69679;DHT22;56915;52.046;4.854;2023-04-06T06:20:59;6.60;65.00
69679;DHT22;56915;52.046;4.854;2023-04-06T06:23:25;6.60;65.10
69679;DHT22;56915;52.046;4.854;2023-04-06T06:25:53;6.70;65.00
69679;DHT22;56915;52.046;4.854;2023-04-06T06:28:20;6.80;65.10
69679;DHT22;56915;52.046;4.854;2023-04-06T06:30:47;6.90;65.10
69679;DHT22;56915;52.046;4.854;2023-04-06T06:33:13;7.00;65.00
69679;DHT22;56915;52.046;4.854;2023-04-06T06:35:40;7.10;64.80
69679;DHT22;56915;52.046;4.854;2023-04-06T06:38:07;7.20;64.50
69679;DHT22;56915;52.046;4.854;2023-04-06T06:40:34;7.30;64.40
69679;DHT22;56915;52.046;4.854;2023-04-06T06:43:01;7.40;64.40
69679;DHT22;56915;52.046;4.854;2023-04-06T06:45:28;7.40;64.00
69679;DHT22;56915;52.046;4.854;2023-04-06T06:47:56;7.50;63.80
69679;DHT22;56915;52.046;4.854;2023-04-06T06:50:23;7.60;63.60
69679;DHT22;56915;52.046;4.854;2023-04-06T06:52:50;7.70;63.50
69679;DHT22;56915;52.046;4.854;2023-04-06T06:55:17;7.80;63.20
69679;DHT22;56915;52.046;4.854;2023-04-06T06:57:45;7.90;63.00
69679;DHT22;56915;52.046;4.854;2023-04-06T07:00:15;8.00;62.60
69679;DHT22;56915;52.046;4.854;2023-04-06T07:02:42;8.00;62.40
69679;DHT22;56915;52.046;4.854;2023-04-06T07:05:11;8.10;62.10
69679;DHT22;56915;52.046;4.854;2023-04-06T07:07:54;8.10;61.70
69679;DHT22;56915;52.046;4.854;2023-04-06T07:10:21;8.30;61.50
69679;DHT22;56915;52.046;4.854;2023-04-06T07:12:48;8.30;61.20
69679;DHT22;56915;52.046;4.854;2023-04-06T07:15:15;8.40;60.60
69679;DHT22;56915;52.046;4.854;2023-04-06T07:17:42;8.50;60.20
69679;DHT22;56915;52.046;4.854;2023-04-06T07:20:12;8.60;59.80
69679;DHT22;56915;52.046;4.854;2023-04-06T07:22:40;8.70;59.30
69679;DHT22;56915;52.046;4.854;2023-04-06T07:25:07;8.80;58.70
69679;DHT22;56915;52.046;4.854;2023-04-06T07:27:34;8.90;58.10
69679;DHT22;56915;52.046;4.854;2023-04-06T07:30:01;9.00;57.80
69679;DHT22;56915;52.046;4.854;2023-04-06T07:32:28;9.10;57.60
69679;DHT22;56915;52.046;4.854;2023-04-06T07:34:56;9.20;57.00
69679;DHT22;56915;52.046;4.854;2023-04-06T07:37:22;9.30;56.80
69679;DHT22;56915;52.046;4.854;2023-04-06T07:39:49;9.40;56.40
69679;DHT22;56915;52.046;4.854;2023-04-06T07:42:19;9.50;56.00
69679;DHT22;56915;52.046;4.854;2023-04-06T07:44:47;9.60;55.50
69679;DHT22;56915;52.046;4.854;2023-04-06T07:47:14;9.70;55.30
69679;DHT22;56915;52.046;4.854;2023-04-06T07:49:41;9.80;55.20
69679;DHT22;56915;52.046;4.854;2023-04-06T07:52:08;9.90;55.00
69679;DHT22;56915;52.046;4.854;2023-04-06T07:54:34;10.10;54.80
69679;DHT22;56915;52.046;4.854;2023-04-06T07:57:01;10.20;54.60
69679;DHT22;56915;52.046;4.854;2023-04-06T07:59:28;10.30;54.20
69679;DHT22;56915;52.046;4.854;2023-04-06T08:01:55;10.40;53.90
69679;DHT22;56915;52.046;4.854;2023-04-06T08:04:22;10.60;53.90
69679;DHT22;56915;52.046;4.854;2023-04-06T08:06:48;10.70;53.50
69679;DHT22;56915;52.046;4.854;2023-04-06T08:09:15;10.80;53.00
69679;DHT22;56915;52.046;4.854;2023-04-06T08:11:42;10.80;52.80
69679;DHT22;56915;52.046;4.854;2023-04-06T08:14:11;10.90;52.90
69679;DHT22;56915;52.046;4.854;2023-04-06T08:16:37;10.90;52.80
69679;DHT22;56915;52.046;4.854;2023-04-06T08:19:04;11.00;53.00
69679;DHT22;56915;52.046;4.854;2023-04-06T08:21:31;11.10;53.00
69679;DHT22;56915;52.046;4.854;2023-04-06T08:23:57;11.20;52.80
69679;DHT22;56915;52.046;4.854;2023-04-06T08:26:24;11.20;52.80
69679;DHT22;56915;52.046;4.854;2023-04-06T08:28:52;11.30;52.90
69679;DHT22;56915;52.046;4.854;2023-04-06T08:31:18;11.30;53.00
69679;DHT22;56915;52.046;4.854;2023-04-06T08:33:45;11.40;53.10
69679;DHT22;56915;52.046;4.854;2023-04-06T08:36:14;11.40;53.20
69679;DHT22;56915;52.046;4.854;2023-04-06T08:38:41;11.50;53.40
69679;DHT22;56915;52.046;4.854;2023-04-06T08:41:10;11.50;53.80
69679;DHT22;56915;52.046;4.854;2023-04-06T08:43:58;11.50;54.00
69679;DHT22;56915;52.046;4.854;2023-04-06T08:46:26;11.50;54.20
69679;DHT22;56915;52.046;4.854;2023-04-06T08:49:00;11.40;54.20
69679;DHT22;56915;52.046;4.854;2023-04-06T08:51:28;11.40;54.60
69679;DHT22;56915;52.046;4.854;2023-04-06T08:53:58;11.40;54.70
69679;DHT22;56915;52.046;4.854;2023-04-06T08:56:26;11.40;54.80
69679;DHT22;56915;52.046;4.854;2023-04-06T08:58:54;11.40;54.90
69679;DHT22;56915;52.046;4.854;2023-04-06T09:01:25;11.50;55.10
69679;DHT22;56915;52.046;4.854;2023-04-06T09:03:56;11.60;55.40
69679;DHT22;56915;52.046;4.854;2023-04-06T09:06:25;11.80;55.40
69679;DHT22;56915;52.046;4.854;2023-04-06T09:08:54;11.90;55.20
69679;DHT22;56915;52.046;4.854;2023-04-06T09:11:21;11.90;54.90
69679;DHT22;56915;52.046;4.854;2023-04-06T09:13:50;12.00;54.80
69679;DHT22;56915;52.046;4.854;2023-04-06T09:16:18;12.00;54.80
69679;DHT22;56915;52.046;4.854;2023-04-06T09:18:46;12.00;54.90
69679;DHT22;56915;52.046;4.854;2023-04-06T09:21:17;12.00;54.70
69679;DHT22;56915;52.046;4.854;2023-04-06T09:23:44;12.00;55.90
69679;DHT22;56915;52.046;4.854;2023-04-06T09:26:13;12.10;55.20
69679;DHT22;56915;52.046;4.854;2023-04-06T09:28:56;12.20;55.10
69679;DHT22;56915;52.046;4.854;2023-04-06T09:31:28;12.30;54.90
69679;DHT22;56915;52.046;4.854;2023-04-06T09:33:57;12.40;54.50
69679;DHT22;56915;52.046;4.854;2023-04-06T09:36:35;12.50;54.50
69679;DHT22;56915;52.046;4.854;2023-04-06T09:39:05;12.60;54.50
69679;DHT22;56915;52.046;4.854;2023-04-06T09:41:36;12.80;54.20
69679;DHT22;56915;52.046;4.854;2023-04-06T09:44:07;12.90;53.50
69679;DHT22;56915;52.046;4.854;2023-04-06T09:46:39;13.00;53.40
69679;DHT22;56915;52.046;4.854;2023-04-06T09:49:27;13.20;52.70
69679;DHT22;56915;52.046;4.854;2023-04-06T09:51:59;13.30;52.20
69679;DHT22;56915;52.046;4.854;2023-04-06T09:54:29;13.30;51.90
69679;DHT22;56915;52.046;4.854;2023-04-06T10:02:45;13.30;51.70
69679;DHT22;56915;52.046;4.854;2023-04-06T10:08:00;13.30;51.90
69679;DHT22;56915;52.046;4.854;2023-04-06T10:10:29;13.10;51.70
69679;DHT22;56915;52.046;4.854;2023-04-06T10:12:57;13.00;52.00
69679;DHT22;56915;52.046;4.854;2023-04-06T10:15:25;12.90;52.70
69679;DHT22;56915;52.046;4.854;2023-04-06T10:17:52;12.80;53.00
69679;DHT22;56915;52.046;4.854;2023-04-06T10:20:54;12.70;53.90
69679;DHT22;56915;52.046;4.854;2023-04-06T10:25:59;12.60;54.50
69679;DHT22;56915;52.046;4.854;2023-04-06T10:28:33;12.40;54.60
69679;DHT22;56915;52.046;4.854;2023-04-06T10:31:05;12.30;55.50
69679;DHT22;56915;52.046;4.854;2023-04-06T10:33:33;12.10;55.90
69679;DHT22;56915;52.046;4.854;2023-04-06T10:36:20;11.90;56.70
69679;DHT22;56915;52.046;4.854;2023-04-06T10:38:57;11.80;57.50
69679;DHT22;56915;52.046;4.854;2023-04-06T10:41:35;11.70;58.80
69679;DHT22;56915;52.046;4.854;2023-04-06T10:44:02;11.70;59.60
69679;DHT22;56915;52.046;4.854;2023-04-06T10:46:31;11.70;60.30
69679;DHT22;56915;52.046;4.854;2023-04-06T10:49:08;11.80;61.70
69679;DHT22;56915;52.046;4.854;2023-04-06T10:51:38;11.90;61.30
69679;DHT22;56915;52.046;4.854;2023-04-06T10:54:07;12.00;61.90
69679;DHT22;56915;52.046;4.854;2023-04-06T10:56:37;12.10;62.50
69679;DHT22;56915;52.046;4.854;2023-04-06T10:59:06;12.30;62.50
69679;DHT22;56915;52.046;4.854;2023-04-06T11:01:34;12.30;62.00
69679;DHT22;56915;52.046;4.854;2023-04-06T11:04:01;12.40;62.40
69679;DHT22;56915;52.046;4.854;2023-04-06T11:06:30;12.50;62.70
69679;DHT22;56915;52.046;4.854;2023-04-06T11:09:00;12.50;62.40
69679;DHT22;56915;52.046;4.854;2023-04-06T11:11:26;12.50;62.40
69679;DHT22;56915;52.046;4.854;2023-04-06T11:13:55;12.60;62.40
69679;DHT22;56915;52.046;4.854;2023-04-06T11:16:25;12.50;62.10
69679;DHT22;56915;52.046;4.854;2023-04-06T11:18:54;12.30;62.10
69679;DHT22;56915;52.046;4.854;2023-04-06T11:24:18;12.10;63.30
69679;DHT22;56915;52.046;4.854;2023-04-06T11:26:56;12.00;64.00
69679;DHT22;56915;52.046;4.854;2023-04-06T11:29:28;11.90;65.00
69679;DHT22;56915;52.046;4.854;2023-04-06T11:32:06;12.10;66.30
69679;DHT22;56915;52.046;4.854;2023-04-06T11:34:38;12.30;66.30
69679;DHT22;56915;52.046;4.854;2023-04-06T11:37:10;12.40;66.10
69679;DHT22;56915;52.046;4.854;2023-04-06T11:42:23;12.50;64.20
69679;DHT22;56915;52.046;4.854;2023-04-06T11:44:53;12.50;64.40
69679;DHT22;56915;52.046;4.854;2023-04-06T11:50:08;12.20;64.70
69679;DHT22;56915;52.046;4.854;2023-04-06T11:52:35;12.10;65.80
69679;DHT22;56915;52.046;4.854;2023-04-06T11:55:17;12.10;66.70
69679;DHT22;56915;52.046;4.854;2023-04-06T11:57:45;12.00;66.70
69679;DHT22;56915;52.046;4.854;2023-04-06T12:00:12;12.00;67.00
69679;DHT22;56915;52.046;4.854;2023-04-06T12:02:39;11.80;66.60
69679;DHT22;56915;52.046;4.854;2023-04-06T12:05:07;11.70;68.20
69679;DHT22;56915;52.046;4.854;2023-04-06T12:07:35;11.70;69.80
69679;DHT22;56915;52.046;4.854;2023-04-06T12:10:03;11.70;69.80
69679;DHT22;56915;52.046;4.854;2023-04-06T12:12:30;11.60;70.30
69679;DHT22;56915;52.046;4.854;2023-04-06T12:14:58;11.60;71.70
69679;DHT22;56915;52.046;4.854;2023-04-06T12:17:25;11.70;73.90
69679;DHT22;56915;52.046;4.854;2023-04-06T12:19:52;11.80;72.50
69679;DHT22;56915;52.046;4.854;2023-04-06T12:22:19;11.80;71.80
69679;DHT22;56915;52.046;4.854;2023-04-06T12:24:46;11.80;73.00
69679;DHT22;56915;52.046;4.854;2023-04-06T12:27:13;11.90;73.20
69679;DHT22;56915;52.046;4.854;2023-04-06T12:29:40;11.90;72.10
69679;DHT22;56915;52.046;4.854;2023-04-06T12:32:07;11.80;72.10
69679;DHT22;56915;52.046;4.854;2023-04-06T12:34:35;11.80;72.60
69679;DHT22;56915;52.046;4.854;2023-04-06T12:37:01;11.80;74.30
69679;DHT22;56915;52.046;4.854;2023-04-06T12:39:28;12.00;74.20
69679;DHT22;56915;52.046;4.854;2023-04-06T12:41:55;12.00;72.30
69679;DHT22;56915;52.046;4.854;2023-04-06T12:44:23;11.90;71.80
69679;DHT22;56915;52.046;4.854;2023-04-06T12:46:52;11.80;72.00
69679;DHT22;56915;52.046;4.854;2023-04-06T12:49:19;11.70;72.70
69679;DHT22;56915;52.046;4.854;2023-04-06T12:51:46;11.60;73.60
69679;DHT22;56915;52.046;4.854;2023-04-06T12:54:13;11.60;74.20
69679;DHT22;56915;52.046;4.854;2023-04-06T12:56:40;11.40;75.20
69679;DHT22;56915;52.046;4.854;2023-04-06T12:59:07;11.30;76.50
69679;DHT22;56915;52.046;4.854;2023-04-06T13:01:34;11.30;77.80
69679;DHT22;56915;52.046;4.854;2023-04-06T13:04:01;11.30;78.50
69679;DHT22;56915;52.046;4.854;2023-04-06T13:06:28;11.20;79.20
69679;DHT22;56915;52.046;4.854;2023-04-06T13:08:55;11.20;80.20
69679;DHT22;56915;52.046;4.854;2023-04-06T13:11:22;11.10;80.10
69679;DHT22;56915;52.046;4.854;2023-04-06T13:13:53;11.10;80.40
69679;DHT22;56915;52.046;4.854;2023-04-06T13:16:20;10.90;80.90
69679;DHT22;56915;52.046;4.854;2023-04-06T13:18:47;10.80;83.20
69679;DHT22;56915;52.046;4.854;2023-04-06T13:21:15;10.80;85.10
69679;DHT22;56915;52.046;4.854;2023-04-06T13:23:43;10.80;86.10
69679;DHT22;56915;52.046;4.854;2023-04-06T13:26:10;10.70;87.20
69679;DHT22;56915;52.046;4.854;2023-04-06T13:28:37;10.70;88.80
69679;DHT22;56915;52.046;4.854;2023-04-06T13:31:07;10.80;90.00
69679;DHT22;56915;52.046;4.854;2023-04-06T13:33:35;10.70;89.60
69679;DHT22;56915;52.046;4.854;2023-04-06T13:36:02;10.60;90.30
69679;DHT22;56915;52.046;4.854;2023-04-06T13:38:29;10.60;91.10
69679;DHT22;56915;52.046;4.854;2023-04-06T13:40:56;10.50;91.50
69679;DHT22;56915;52.046;4.854;2023-04-06T13:43:23;10.40;92.50
69679;DHT22;56915;52.046;4.854;2023-04-06T13:45:53;10.40;93.20
69679;DHT22;56915;52.046;4.854;2023-04-06T13:48:25;10.40;94.20
69679;DHT22;56915;52.046;4.854;2023-04-06T13:50:52;10.40;94.90
69679;DHT22;56915;52.046;4.854;2023-04-06T13:53:19;10.40;95.70
69679;DHT22;56915;52.046;4.854;2023-04-06T13:55:54;10.30;96.20
69679;DHT22;56915;52.046;4.854;2023-04-06T13:58:21;10.20;97.20
69679;DHT22;56915;52.046;4.854;2023-04-06T14:00:48;10.20;97.80
69679;DHT22;56915;52.046;4.854;2023-04-06T14:03:15;10.10;98.10
69679;DHT22;56915;52.046;4.854;2023-04-06T14:05:42;10.10;98.50
69679;DHT22;56915;52.046;4.854;2023-04-06T14:08:09;10.00;99.00
69679;DHT22;56915;52.046;4.854;2023-04-06T14:10:40;10.00;99.40
69679;DHT22;56915;52.046;4.854;2023-04-06T14:13:08;9.90;99.80
69679;DHT22;56915;52.046;4.854;2023-04-06T14:15:35;9.90;99.90
69679;DHT22;56915;52.046;4.854;2023-04-06T14:18:02;9.90;99.90
69679;DHT22;56915;52.046;4.854;2023-04-06T14:20:31;9.90;99.90
69679;DHT22;56915;52.046;4.854;2023-04-06T14:23:02;10.00;99.90
69679;DHT22;56915;52.046;4.854;2023-04-06T14:25:29;9.90;99.90
69679;DHT22;56915;52.046;4.854;2023-04-06T14:28:01;9.90;99.90
69679;DHT22;56915;52.046;4.854;2023-04-06T14:30:30;9.80;99.90
69679;DHT22;56915;52.046;4.854;2023-04-06T14:32:57;9.70;99.90
69679;DHT22;56915;52.046;4.854;2023-04-06T14:35:25;9.60;99.90
69679;DHT22;56915;52.046;4.854;2023-04-06T14:37:54;9.50;99.90
69679;DHT22;56915;52.046;4.854;2023-04-06T14:40:25;9.50;99.90
69679;DHT22;56915;52.046;4.854;2023-04-06T14:42:52;9.50;99.90
69679;DHT22;56915;52.046;4.854;2023-04-06T14:45:19;9.50;99.90
69679;DHT22;56915;52.046;4.854;2023-04-06T14:47:50;9.50;99.90
69679;DHT22;56915;52.046;4.854;2023-04-06T14:50:17;9.50;99.90
69679;DHT22;56915;52.046;4.854;2023-04-06T14:52:44;9.50;99.90
69679;DHT22;56915;52.046;4.854;2023-04-06T14:55:12;9.50;99.90
69679;DHT22;56915;52.046;4.854;2023-04-06T14:57:40;9.50;99.90
69679;DHT22;56915;52.046;4.854;2023-04-06T15:00:07;9.50;99.90
69679;DHT22;56915;52.046;4.854;2023-04-06T15:02:35;9.50;99.90
69679;DHT22;56915;52.046;4.854;2023-04-06T15:05:03;9.50;99.90
69679;DHT22;56915;52.046;4.854;2023-04-06T15:07:31;9.50;99.90
69679;DHT22;56915;52.046;4.854;2023-04-06T15:09:57;9.50;99.90
69679;DHT22;56915;52.046;4.854;2023-04-06T15:12:24;9.40;99.90
69679;DHT22;56915;52.046;4.854;2023-04-06T15:14:51;9.50;99.90
69679;DHT22;56915;52.046;4.854;2023-04-06T15:17:18;9.40;99.90
69679;DHT22;56915;52.046;4.854;2023-04-06T15:19:44;9.50;99.90
69679;DHT22;56915;52.046;4.854;2023-04-06T15:22:11;9.50;99.90
69679;DHT22;56915;52.046;4.854;2023-04-06T15:24:38;9.60;99.90
69679;DHT22;56915;52.046;4.854;2023-04-06T15:27:05;9.70;99.90
69679;DHT22;56915;52.046;4.854;2023-04-06T15:29:32;9.80;99.90
69679;DHT22;56915;52.046;4.854;2023-04-06T15:31:58;9.80;99.90
69679;DHT22;56915;52.046;4.854;2023-04-06T15:34:25;9.80;99.90
69679;DHT22;56915;52.046;4.854;2023-04-06T15:37:00;9.80;99.90
69679;DHT22;56915;52.046;4.854;2023-04-06T15:39:28;9.80;99.90
69679;DHT22;56915;52.046;4.854;2023-04-06T15:41:55;9.70;99.90
69679;DHT22;56915;52.046;4.854;2023-04-06T15:44:23;9.60;99.90
69679;DHT22;56915;52.046;4.854;2023-04-06T15:46:50;9.60;99.90
69679;DHT22;56915;52.046;4.854;2023-04-06T15:49:19;9.50;99.90
69679;DHT22;56915;52.046;4.854;2023-04-06T15:51:47;9.50;99.90
69679;DHT22;56915;52.046;4.854;2023-04-06T15:54:14;9.40;99.90
69679;DHT22;56915;52.046;4.854;2023-04-06T15:56:42;9.30;99.90
69679;DHT22;56915;52.046;4.854;2023-04-06T15:59:09;9.30;99.90
69679;DHT22;56915;52.046;4.854;2023-04-06T16:01:36;9.30;99.90
69679;DHT22;56915;52.046;4.854;2023-04-06T16:04:06;9.30;99.90
69679;DHT22;56915;52.046;4.854;2023-04-06T16:06:34;9.20;99.90